METAR EVRA 160820Z 16011KT 9999 -SHRA SCT043CB 13/12 Q1006 RESHRA NOSIG =

NOTAMs

Controllers Online

PositionControllerOnline
EVRA_APPArtem Mordvinov00:10

Booked ATC Today

* Times are UTC

The time is now

UTC: 

Local: 

Latvia vACC on twitter